Weather at Charles de Gaulle International Airport

Public forecast

Using degrees Celsius for public forecast. Weather courtesy of forecast.io.

Current aviation weather report (METAR) for Charles de Gaulle International Airport

2023/02/02 18:00 (retrieved 17 minutes ago)

LFPG 021800Z 25009KT 9999 BKN035 09/04 Q1032 NOSIG

Aviation forecast (TAF) for Charles de Gaulle International Airport

2023/02/02 18:00 (retrieved 17 minutes ago)

TAF LFPG 021700Z 0218/0324 25010KT 9999 BKN025 TX10/0315Z TN06/0306Z PROB30 TEMPO 0309/0324 BKN012